Time;durP1;ratioP1;P1;durP2;ratioP2;P2;SDS_P1;SDS_P2;PMS_P1;PMS_P2;Temp;Humidity;BMP_temperature;BMP_pressure;BME280_temperature;BME280_humidity;BME280_pressure;Samples;Min_cycle;Max_cycle;Signal;HPM_P1;HPM_P2
2024/02/09 00:01:11;;;;;;;4.65;2.70;;;1.50;99.90;;;;;;5723179;23;20067;-96
2024/02/09 00:04:01;;;;;;;4.50;2.50;;;1.90;99.90;;;;;;4956149;29;20055;-96
2024/02/09 00:06:41;;;;;;;4.13;2.30;;;2.50;99.90;;;;;;4930949;29;20048;-96
2024/02/09 00:09:12;;;;;;;4.95;2.28;;;1.50;99.90;;;;;;4930543;29;20104;-96
2024/02/09 00:11:40;;;;;;;4.40;2.40;;;1.40;99.90;;;;;;4928187;29;20073;-94
2024/02/09 00:14:07;;;;;;;4.57;2.63;;;1.40;99.90;;;;;;4920972;29;20040;-96
2024/02/09 00:16:34;;;;;;;4.30;2.28;;;;;;;;;;4930944;29;20054;-96
2024/02/09 00:19:09;;;;;;;4.28;2.47;;;1.50;99.90;;;;;;4929767;29;20066;-93
2024/02/09 00:21:37;;;;;;;4.30;2.35;;;1.90;99.90;;;;;;4948026;29;20040;-94
2024/02/09 00:24:08;;;;;;;4.50;2.55;;;1.50;99.90;;;;;;4924784;29;20047;-95
2024/02/09 00:26:35;;;;;;;3.67;2.20;;;;;;;;;;4938265;29;20513;-96
2024/02/09 00:29:08;;;;;;;4.25;2.42;;;1.50;99.90;;;;;;4946722;29;20041;-96
2024/02/09 00:31:38;;;;;;;4.63;2.60;;;2.30;99.90;;;;;;4950526;29;20052;-96
2024/02/09 00:34:10;;;;;;;4.78;2.50;;;1.70;99.90;;;;;;4966607;29;20059;-96
2024/02/09 00:36:40;;;;;;;4.65;2.60;;;0.80;99.90;;;;;;4953431;29;20040;-96
2024/02/09 00:39:19;;;;;;;5.15;2.65;;;1.60;99.90;;;;;;4935907;29;20043;-96
2024/02/09 00:41:51;;;;;;;4.68;2.88;;;0.70;99.90;;;;;;4954876;29;20040;-96
2024/02/09 00:44:28;;;;;;;4.72;2.80;;;0.90;99.90;;;;;;4942509;29;20047;-96
2024/02/09 00:47:04;;;;;;;;;;;0.80;99.90;;;;;;4911656;29;20048;-96
2024/02/09 00:49:32;;;;;;;5.45;3.00;;;1.50;99.90;;;;;;4934508;29;19933;-96
2024/02/09 00:52:00;;;;;;;4.03;2.53;;;1.50;99.90;;;;;;4932704;29;20505;-95
2024/02/09 00:54:30;;;;;;;4.28;2.45;;;2.50;99.90;;;;;;4935101;29;20048;-96
2024/02/09 00:56:57;;;;;;;3.88;2.35;;;1.50;99.90;;;;;;4935010;29;20485;-95
2024/02/09 00:59:26;;;;;;;4.85;2.85;;;3.50;99.90;;;;;;4939071;29;20037;-96
2024/02/09 01:01:54;;;;;;;6.07;2.75;;;1.50;99.90;;;;;;4968476;29;20043;-96
2024/02/09 01:04:24;;;;;;;4.40;2.40;;;0.80;99.90;;;;;;4955087;29;20530;-95
2024/02/09 01:06:55;;;;;;;4.18;2.45;;;1.10;99.90;;;;;;4965657;29;20051;-95
2024/02/09 01:09:25;;;;;;;3.60;2.30;;;1.90;99.90;;;;;;4957710;29;20067;-96
2024/02/09 01:11:56;;;;;;;3.67;2.05;;;1.70;99.90;;;;;;4955070;29;20044;-96
2024/02/09 02:44:57;;;;;;;4.05;2.40;;;1.70;99.90;;;;;;4971889;29;20054;-95
2024/02/09 03:04:19;;;;;;;7.10;2.45;;;1.70;99.90;;;;;;4981898;29;20043;-95
2024/02/09 03:06:49;;;;;;;4.20;2.25;;;2.60;99.90;;;;;;4966372;29;20070;-95
2024/02/09 03:09:16;;;;;;;5.25;2.78;;;0.80;99.90;;;;;;4965638;29;20039;-94
2024/02/09 03:11:45;;;;;;;6.00;2.60;;;0.80;99.90;;;;;;4962398;29;20492;-96
2024/02/09 03:14:12;;;;;;;4.55;2.67;;;1.60;99.90;;;;;;4965551;29;20520;-95
2024/02/09 03:16:39;;;;;;;5.25;2.58;;;1.10;99.90;;;;;;4969038;29;20035;-95
2024/02/09 03:19:06;;;;;;;6.28;2.42;;;1.70;99.90;;;;;;4970655;29;20047;-95
2024/02/09 03:21:35;;;;;;;5.32;3.00;;;2.70;99.90;;;;;;4964477;29;20067;-95
2024/02/09 03:24:02;;;;;;;5.35;2.95;;;1.70;99.90;;;;;;4978218;28;20096;-93
2024/02/09 03:26:30;;;;;;;6.28;3.55;;;1.70;99.90;;;;;;4970197;29;20130;-94
2024/02/09 03:29:25;;;;;;;5.93;3.33;;;1.80;99.90;;;;;;4976154;29;20075;-93
2024/02/09 03:32:03;;;;;;;7.53;4.20;;;1.40;99.90;;;;;;4981243;29;20055;-94
2024/02/09 03:34:36;;;;;;;7.30;4.05;;;1.20;99.90;;;;;;4993168;28;20054;-94
2024/02/09 03:37:12;;;;;;;7.20;3.88;;;1.20;99.90;;;;;;4991087;29;20043;-92
2024/02/09 03:39:52;;;;;;;6.82;4.00;;;2.50;99.90;;;;;;4974208;29;20027;-93
2024/02/09 03:42:23;;;;;;;6.63;3.75;;;0.90;99.90;;;;;;4962860;28;20027;-95
2024/02/09 03:45:19;;;;;;;7.28;3.63;;;1.80;99.90;;;;;;4972624;29;20079;-95
2024/02/09 03:47:57;;;;;;;7.22;3.83;;;0.90;99.90;;;;;;5005402;28;20031;-96
2024/02/09 03:50:34;;;;;;;7.15;3.55;;;1.70;99.90;;;;;;4974830;28;20106;-96
2024/02/09 03:53:07;;;;;;;7.22;3.78;;;1.60;99.90;;;;;;5008067;28;20031;-96
2024/02/09 03:55:39;;;;;;;5.88;3.40;;;1.40;99.90;;;;;;4972189;29;20035;-96
2024/02/09 03:58:10;;;;;;;5.70;3.10;;;2.10;99.90;;;;;;4957670;29;20039;-96
2024/02/09 04:00:46;;;;;;;5.35;3.20;;;1.80;99.90;;;;;;4967625;29;20456;-96
2024/02/09 04:03:15;;;;;;;6.30;3.42;;;2.00;99.90;;;;;;4968513;28;20520;-96
2024/02/09 04:05:42;;;;;;;7.38;3.45;;;1.80;99.90;;;;;;4964012;29;20043;-96
2024/02/09 04:08:09;;;;;;;5.82;3.10;;;3.30;99.90;;;;;;4955381;28;20051;-96
2024/02/09 04:10:40;;;;;;;7.05;3.53;;;2.50;99.90;;;;;;4962871;29;20035;-96
2024/02/09 04:13:07;;;;;;;6.72;2.80;;;1.90;99.90;;;;;;4960319;29;20054;-96
2024/02/09 04:15:33;;;;;;;6.90;2.92;;;0.80;99.90;;;;;;4961589;29;20043;-96
2024/02/09 04:18:03;;;;;;;6.70;3.47;;;3.20;99.90;;;;;;4950662;29;20051;-96
2024/02/09 04:20:30;;;;;;;6.88;3.63;;;1.80;99.90;;;;;;4954741;29;20531;-96
2024/02/09 04:23:00;;;;;;;7.95;3.80;;;3.30;99.90;;;;;;4972610;29;20047;-96
2024/02/09 04:25:27;;;;;;;6.97;3.45;;;1.90;99.90;;;;;;4960719;29;20046;-96
2024/02/09 04:27:54;;;;;;;6.38;3.30;;;1.80;99.90;;;;;;4956724;29;20123;-96
2024/02/09 04:30:21;;;;;;;6.60;3.95;;;2.50;99.90;;;;;;4950672;29;20046;-96
2024/02/09 04:32:48;;;;;;;8.15;3.92;;;1.60;99.90;;;;;;4956480;29;20067;-96
2024/02/09 04:35:15;;;;;;;6.50;3.55;;;2.70;99.90;;;;;;4957017;28;20480;-96
2024/02/09 04:37:43;;;;;;;7.32;3.80;;;3.00;99.90;;;;;;4962277;29;20039;-96
2024/02/09 04:40:10;;;;;;;7.47;3.72;;;3.20;99.90;;;;;;4961442;29;20098;-96
2024/02/09 04:42:37;;;;;;;7.53;3.58;;;1.90;99.90;;;;;;4960147;29;20043;-96
2024/02/09 04:45:04;;;;;;;6.18;3.22;;;3.20;99.90;;;;;;4960586;29;20039;-96
2024/02/09 04:47:31;;;;;;;6.78;3.55;;;1.90;99.90;;;;;;4961012;29;20141;-96
2024/02/09 04:49:58;;;;;;;5.97;3.45;;;1.50;99.90;;;;;;4945749;29;20053;-96
2024/02/09 04:52:27;;;;;;;7.35;3.75;;;2.90;99.90;;;;;;4966096;29;20483;-96
2024/02/09 04:54:54;;;;;;;6.70;3.83;;;2.30;99.90;;;;;;4963212;29;20039;-96
2024/02/09 04:57:21;;;;;;;6.35;3.50;;;2.90;99.90;;;;;;4964845;29;20404;-96
2024/02/09 04:59:48;;;;;;;5.97;3.33;;;1.80;99.90;;;;;;4963563;29;20099;-95
2024/02/09 05:02:14;;;;;;;5.55;2.92;;;2.40;99.90;;;;;;4956620;29;20130;-96
2024/02/09 05:04:41;;;;;;;5.80;2.70;;;3.30;99.90;;;;;;4960636;29;20130;-96
2024/02/09 05:07:08;;;;;;;5.75;2.85;;;3.00;99.90;;;;;;4958846;29;20051;-96
2024/02/09 05:09:34;;;;;;;6.43;2.83;;;2.00;99.90;;;;;;4958707;29;20039;-96
2024/02/09 05:12:01;;;;;;;6.75;2.90;;;3.00;99.90;;;;;;4961702;29;20032;-95
2024/02/09 05:14:29;;;;;;;5.95;2.90;;;2.00;99.90;;;;;;4948552;29;20057;-96
2024/02/09 05:16:56;;;;;;;7.20;2.70;;;2.90;99.90;;;;;;4966834;29;20031;-96
2024/02/09 05:19:22;;;;;;;5.95;3.00;;;2.90;99.90;;;;;;4971198;29;20035;-96
2024/02/09 05:21:49;;;;;;;5.68;2.83;;;2.00;99.90;;;;;;4962106;28;20039;-96
2024/02/09 05:24:18;;;;;;;5.07;2.67;;;3.00;99.90;;;;;;4962121;28;20373;-96
2024/02/09 05:26:44;;;;;;;5.82;2.47;;;3.40;99.90;;;;;;4962377;28;20077;-96
2024/02/09 05:29:11;;;;;;;6.20;2.90;;;2.90;99.90;;;;;;4961794;28;20479;-96
2024/02/09 05:31:41;;;;;;;9.55;2.83;;;3.40;99.90;;;;;;4960326;29;20047;-96
2024/02/09 05:34:08;;;;;;;5.68;3.00;;;3.50;99.90;;;;;;4966067;29;20087;-96
2024/02/09 05:36:36;;;;;;;4.80;2.50;;;2.10;99.90;;;;;;4966682;28;20047;-96
2024/02/09 05:39:02;;;;;;;5.10;2.40;;;3.20;99.90;;;;;;4965269;28;20507;-96
2024/02/09 05:41:29;;;;;;;5.40;2.42;;;3.30;99.90;;;;;;4963554;29;20038;-96
2024/02/09 05:43:56;;;;;;;5.43;2.40;;;3.10;99.90;;;;;;4969508;28;20133;-96
2024/02/09 05:46:26;;;;;;;5.18;2.65;;;3.20;99.90;;;;;;4984342;29;20050;-96
2024/02/09 05:48:55;;;;;;;6.05;2.92;;;2.60;99.90;;;;;;4973475;28;20054;-96
2024/02/09 05:51:22;;;;;;;5.07;2.42;;;2.30;99.90;;;;;;4968458;29;20051;-95
2024/02/09 05:53:51;;;;;;;4.65;2.40;;;2.10;99.90;;;;;;4975553;28;20106;-95
2024/02/09 05:56:25;;;;;;;5.15;2.75;;;2.20;99.90;;;;;;4990564;29;20031;-94
2024/02/09 05:58:55;;;;;;;5.15;2.90;;;;;;;;;;4986675;28;20047;-96
2024/02/09 06:01:34;;;;;;;5.75;2.90;;;2.20;99.90;;;;;;4991542;29;20047;-96
2024/02/09 06:04:07;;;;;;;5.68;2.75;;;1.50;99.90;;;;;;4989547;29;20051;-96
2024/02/09 06:06:54;;;;;;;;;;;;;;;;;;;;;
2024/02/09 06:09:24;;;;;;;6.35;2.88;;;3.30;99.90;;;;;;4989943;29;20038;-95
2024/02/09 06:11:57;;;;;;;5.75;3.03;;;3.60;99.90;;;;;;5007339;28;20051;-96
2024/02/09 06:14:24;;;;;;;5.75;3.00;;;2.30;99.90;;;;;;4970407;29;20087;-96
2024/02/09 06:16:52;;;;;;;5.97;2.92;;;;;;;;;;4974193;28;20058;-95
2024/02/09 06:19:23;;;;;;;6.75;3.17;;;2.30;99.90;;;;;;4979696;29;20040;-93
2024/02/09 06:21:55;;;;;;;7.03;3.38;;;3.70;99.90;;;;;;4973884;29;20098;-96
2024/02/09 06:24:38;;;;;;;;;;;;;;;;;;;;;
2024/02/09 06:27:12;;;;;;;5.90;3.13;;;2.00;99.90;;;;;;5010436;28;20043;-96
2024/02/09 06:29:39;;;;;;;7.45;3.80;;;;;;;;;;4983234;29;20047;-96
2024/02/09 06:32:06;;;;;;;7.30;3.15;;;2.40;99.90;;;;;;4973092;28;20083;-96
2024/02/09 06:34:33;;;;;;;6.70;3.70;;;1.50;99.90;;;;;;4964930;29;20496;-96
2024/02/09 06:37:00;;;;;;;8.32;3.70;;;2.40;99.90;;;;;;4967451;29;20043;-96
2024/02/09 06:39:27;;;;;;;5.50;3.22;;;2.80;99.90;;;;;;4955395;29;20045;-96
2024/02/09 06:41:54;;;;;;;8.30;3.45;;;2.40;99.90;;;;;;4965950;29;20172;-96
2024/02/09 06:44:21;;;;;;;7.55;3.90;;;3.60;99.90;;;;;;4965343;29;20045;-96
2024/02/09 06:46:51;;;;;;;7.13;3.40;;;3.10;99.90;;;;;;4975980;28;20081;-96
2024/02/09 06:49:17;;;;;;;9.48;3.70;;;3.60;99.90;;;;;;4964951;29;20046;-96
2024/02/09 06:51:45;;;;;;;6.72;3.67;;;3.20;99.90;;;;;;4961676;29;20047;-96
2024/02/09 06:54:12;;;;;;;7.40;3.55;;;2.40;99.90;;;;;;4964523;29;20071;-96
2024/02/09 06:56:38;;;;;;;6.55;3.47;;;3.70;99.90;;;;;;4963577;29;20086;-96
2024/02/09 06:59:06;;;;;;;6.05;3.55;;;3.50;99.90;;;;;;4964112;29;20046;-96
2024/02/09 07:01:36;;;;;;;6.78;3.63;;;3.70;99.90;;;;;;4973116;29;20035;-96
2024/02/09 07:04:05;;;;;;;7.00;3.72;;;2.50;99.90;;;;;;4964871;29;20127;-96
2024/02/09 07:06:32;;;;;;;7.88;3.90;;;2.50;99.90;;;;;;4965340;28;20043;-95
2024/02/09 07:08:59;;;;;;;10.95;3.67;;;2.50;99.90;;;;;;4961400;29;20055;-95
2024/02/09 07:11:26;;;;;;;8.55;4.28;;;3.00;99.90;;;;;;4965907;28;20079;-96
2024/02/09 07:13:55;;;;;;;8.82;4.05;;;3.10;99.90;;;;;;4978388;28;20054;-95
2024/02/09 07:16:22;;;;;;;6.85;3.80;;;3.40;99.90;;;;;;4970949;29;20031;-96
2024/02/09 07:18:55;;;;;;;8.50;4.10;;;2.70;99.90;;;;;;4965294;29;20039;-95
2024/02/09 07:27:33;;;;;;;7.82;4.00;;;3.70;99.90;;;;;;5543509;23;20524;-96
2024/02/09 07:30:01;;;;;;;8.43;4.13;;;3.80;99.90;;;;;;4944620;29;20134;-96
2024/02/09 07:32:28;;;;;;;8.55;4.18;;;;;;;;;;4941165;29;20043;-96
2024/02/09 07:34:58;;;;;;;9.18;4.47;;;2.70;99.90;;;;;;4946987;29;20043;-95
2024/02/09 07:37:26;;;;;;;9.70;4.28;;;2.00;99.90;;;;;;4945964;29;20210;-95
2024/02/09 07:39:54;;;;;;;10.05;4.88;;;1.50;99.90;;;;;;4948220;29;20103;-95
2024/02/09 07:42:34;;;;;;;8.02;4.18;;;3.70;99.90;;;;;;4961732;29;20068;-96
2024/02/09 07:45:27;;;;;;;7.90;4.13;;;2.80;99.90;;;;;;4951275;29;20071;-96
2024/02/09 07:48:07;;;;;;;9.48;4.60;;;2.20;99.90;;;;;;4952241;29;20048;-93
2024/02/09 07:50:52;;;;;;;8.05;4.10;;;2.80;99.90;;;;;;4950319;29;20055;-94
2024/02/09 07:54:02;;;;;;;11.43;4.85;;;2.90;99.90;;;;;;5378503;23;20095;-93
2024/02/09 07:59:40;;;;;;;8.18;4.47;;;3.80;99.90;;;;;;5040822;23;20083;-96
2024/02/09 08:10:50;;;;;;;9.02;4.70;;;2.10;99.90;;;;;;4972149;28;20114;-95
2024/02/09 08:18:48;;;;;;;9.52;5.13;;;3.10;99.90;;;;;;5433122;23;20071;-94
2024/02/09 08:22:49;;;;;;;9.77;4.85;;;2.50;99.90;;;;;;4952346;29;20087;-93
2024/02/09 08:33:11;;;;;;;10.48;5.47;;;2.80;99.90;;;;;;4928366;29;20089;-95
2024/02/09 08:36:02;;;;;;;9.48;4.97;;;3.50;99.90;;;;;;4883266;29;20141;-93
2024/02/09 08:38:31;;;;;;;10.55;4.72;;;3.30;99.90;;;;;;4880677;29;20048;-94
2024/02/09 08:41:02;;;;;;;10.68;5.25;;;4.30;99.90;;;;;;4974590;29;20047;-93
2024/02/09 08:43:32;;;;;;;9.05;4.68;;;3.60;99.90;;;;;;4945371;29;20044;-96
2024/02/09 08:45:58;;;;;;;13.23;5.53;;;3.60;99.90;;;;;;4936814;29;20050;-86
2024/02/09 08:48:25;;;;;;;9.57;5.10;;;5.00;99.90;;;;;;4934465;29;20893;-86
2024/02/09 08:50:52;;;;;;;11.20;5.57;;;3.60;99.90;;;;;;4927862;29;20457;-82
2024/02/09 08:53:18;;;;;;;12.02;5.78;;;3.70;99.90;;;;;;4936089;29;20110;-88
2024/02/09 08:55:45;;;;;;;10.85;5.40;;;4.90;99.90;;;;;;4940907;29;20127;-91
2024/02/09 08:58:11;;;;;;;10.82;5.55;;;4.80;99.90;;;;;;4931056;29;20075;-90
2024/02/09 09:00:38;;;;;;;13.90;5.75;;;3.80;99.90;;;;;;4940481;29;20078;-89
2024/02/09 09:03:05;;;;;;;11.85;6.10;;;3.80;99.90;;;;;;4940282;29;20035;-90
2024/02/09 09:05:31;;;;;;;12.98;6.00;;;5.00;99.90;;;;;;4949012;29;20071;-90
2024/02/09 09:07:59;;;;;;;11.98;6.22;;;5.00;99.90;;;;;;4934483;29;20047;-90
2024/02/09 09:10:26;;;;;;;12.32;5.70;;;4.70;99.90;;;;;;4945204;29;20048;-89
2024/02/09 09:12:53;;;;;;;12.82;6.32;;;4.00;99.90;;;;;;4940387;29;20043;-90
2024/02/09 09:15:19;;;;;;;11.82;5.15;;;4.00;99.90;;;;;;4940573;29;20497;-89
2024/02/09 09:17:49;;;;;;;12.07;5.57;;;4.10;99.90;;;;;;4940609;29;20668;-90
2024/02/09 09:20:15;;;;;;;10.57;5.80;;;4.60;99.90;;;;;;4940499;29;20043;-90
2024/02/09 09:22:42;;;;;;;12.48;6.75;;;4.10;99.90;;;;;;4940237;29;20040;-89
2024/02/09 09:25:09;;;;;;;13.60;6.63;;;4.20;99.90;;;;;;4938207;29;20044;-89
2024/02/09 09:27:35;;;;;;;18.10;6.80;;;5.30;99.90;;;;;;4940255;29;20489;-89
2024/02/09 09:30:05;;;;;;;17.33;6.68;;;4.20;99.90;;;;;;4936875;29;20056;-89
2024/02/09 09:32:32;;;;;;;13.57;6.78;;;4.30;99.90;;;;;;4939863;29;20876;-89
2024/02/09 09:35:00;;;;;;;14.07;6.93;;;5.00;99.90;;;;;;4940015;29;20043;-89
2024/02/09 09:37:28;;;;;;;13.65;7.00;;;4.40;99.90;;;;;;4965170;29;20039;-89
2024/02/09 09:39:55;;;;;;;15.57;7.45;;;5.40;99.90;;;;;;4945440;29;20055;-90
2024/02/09 09:42:23;;;;;;;16.63;7.68;;;4.50;99.90;;;;;;4939911;29;20039;-90
2024/02/09 09:44:52;;;;;;;15.75;7.30;;;4.50;99.90;;;;;;4939752;29;20090;-90
2024/02/09 09:47:22;;;;;;;18.80;7.40;;;4.50;99.90;;;;;;4940120;29;20079;-90
2024/02/09 09:49:51;;;;;;;16.92;7.80;;;5.70;99.90;;;;;;4938892;29;20040;-89
2024/02/09 09:52:33;;;;;;;17.00;7.53;;;4.60;99.90;;;;;;4939775;29;20035;-90
2024/02/09 09:55:00;;;;;;;16.73;7.95;;;5.30;99.90;;;;;;4955226;29;20044;-90
2024/02/09 09:57:27;;;;;;;15.98;7.57;;;5.30;99.90;;;;;;4939738;29;20044;-90
2024/02/09 09:59:54;;;;;;;17.92;8.90;;;4.90;99.90;;;;;;4954429;29;20043;-90
2024/02/09 10:02:21;;;;;;;18.50;9.25;;;5.30;99.90;;;;;;4946062;29;20063;-89
2024/02/09 10:04:48;;;;;;;19.38;8.43;;;5.70;99.90;;;;;;4944361;29;20039;-89
2024/02/09 10:07:19;;;;;;;17.30;8.65;;;5.40;99.90;;;;;;4938183;29;20051;-89
2024/02/09 10:09:46;;;;;;;17.75;8.15;;;5.00;99.90;;;;;;4938753;29;20040;-93
2024/02/09 10:12:16;;;;;;;19.40;8.68;;;5.10;99.90;;;;;;4939358;29;20036;-91
2024/02/09 10:14:44;;;;;;;20.95;9.23;;;6.30;99.90;;;;;;4938986;29;20031;-92
2024/02/09 10:17:12;;;;;;;21.23;9.20;;;5.30;99.90;;;;;;4939347;29;20036;-93
2024/02/09 10:19:38;;;;;;;25.80;9.88;;;5.30;99.90;;;;;;4952764;29;20043;-92
2024/02/09 10:22:06;;;;;;;18.38;8.95;;;5.40;99.90;;;;;;4934658;29;20044;-94
2024/02/09 10:24:32;;;;;;;26.83;10.43;;;5.50;99.90;;;;;;4934827;29;20031;-91
2024/02/09 10:27:00;;;;;;;21.85;10.23;;;5.50;99.90;;;;;;4938024;29;20046;-89
2024/02/09 10:29:26;;;;;;;26.30;10.35;;;5.50;99.90;;;;;;4938224;29;20062;-90
2024/02/09 10:31:55;;;;;;;23.67;10.23;;;5.60;99.90;;;;;;4937790;29;20501;-91
2024/02/09 10:34:25;;;;;;;24.45;9.77;;;6.20;99.90;;;;;;4939161;29;20042;-93
2024/02/09 10:36:55;;;;;;;27.48;10.85;;;5.60;99.90;;;;;;4933003;29;20075;-92
2024/02/09 10:39:21;;;;;;;23.38;9.90;;;5.70;99.90;;;;;;4938430;29;20054;-89
2024/02/09 10:41:52;;;;;;;23.17;10.68;;;5.70;99.90;;;;;;4944248;29;20048;-91
2024/02/09 10:44:20;;;;;;;23.00;11.07;;;6.40;99.90;;;;;;4936648;29;20055;-89
2024/02/09 10:46:46;;;;;;;34.22;10.98;;;5.80;99.90;;;;;;4930481;29;20488;-90
2024/02/09 10:49:15;;;;;;;29.00;11.15;;;7.00;99.90;;;;;;4938597;29;20039;-91
2024/02/09 10:51:43;;;;;;;29.38;10.73;;;6.20;99.90;;;;;;4938689;29;20505;-91
2024/02/09 10:54:23;;;;;;;24.08;10.45;;;6.00;99.90;;;;;;4939190;29;20119;-90
2024/02/09 10:56:51;;;;;;;34.03;11.10;;;7.10;99.90;;;;;;4941519;29;20520;-91
2024/02/09 10:59:20;;;;;;;21.95;10.80;;;7.30;99.90;;;;;;4946367;29;20065;-91
2024/02/09 11:01:47;;;;;;;27.75;11.20;;;7.40;99.90;;;;;;4949200;29;20044;-92
2024/02/09 11:04:14;;;;;;;24.48;11.05;;;7.50;99.90;;;;;;4937890;29;20046;-91
2024/02/09 11:06:42;;;;;;;28.33;10.85;;;7.00;99.90;;;;;;4936841;29;20076;-91
2024/02/09 11:09:10;;;;;;;47.60;12.77;;;7.00;99.90;;;;;;4938538;29;20385;-91
2024/02/09 11:11:39;;;;;;;39.75;12.82;;;6.40;99.90;;;;;;4937928;29;20039;-92
2024/02/09 11:14:10;;;;;;;31.67;12.18;;;7.60;99.90;;;;;;4934205;29;20043;-90
2024/02/09 11:16:48;;;;;;;34.05;11.88;;;6.60;99.90;;;;;;4927343;29;20046;-91
2024/02/09 11:19:18;;;;;;;23.92;11.07;;;6.40;99.90;;;;;;4937283;29;21683;-91
2024/02/09 11:21:55;;;;;;;34.88;12.30;;;6.90;99.90;;;;;;4951952;29;20509;-92
2024/02/09 11:24:27;;;;;;;43.65;12.15;;;6.60;99.90;;;;;;4935122;29;20493;-91
2024/02/09 11:26:55;;;;;;;50.15;13.73;;;7.00;99.90;;;;;;4935227;29;20047;-91
2024/02/09 11:29:22;;;;;;;30.45;12.50;;;6.50;99.90;;;;;;4936745;29;20060;-91
2024/02/09 11:31:56;;;;;;;35.60;13.13;;;6.60;99.90;;;;;;4937573;29;20046;-91
2024/02/09 11:34:25;;;;;;;25.98;11.50;;;6.70;99.90;;;;;;4933321;29;20047;-91
2024/02/09 11:37:00;;;;;;;33.47;12.45;;;7.40;99.90;;;;;;4937709;29;20036;-91
2024/02/09 11:39:28;;;;;;;33.05;9.52;;;6.90;99.90;;;;;;4953660;29;20054;-91
2024/02/09 11:41:55;;;;;;;14.15;6.38;;;7.60;99.90;;;;;;4937595;29;20062;-91
2024/02/09 11:44:22;;;;;;;20.33;7.85;;;8.30;99.90;;;;;;4936764;29;20150;-91
2024/02/09 11:46:52;;;;;;;11.70;5.13;;;7.60;99.90;;;;;;4938237;29;20047;-92
2024/02/09 11:49:23;;;;;;;12.63;5.32;;;7.80;99.90;;;;;;4936610;29;20110;-91
2024/02/09 11:51:50;;;;;;;13.23;5.20;;;8.50;99.90;;;;;;4952407;29;20044;-92
2024/02/09 11:54:17;;;;;;;10.93;5.45;;;8.30;99.90;;;;;;4952880;29;20412;-91
2024/02/09 11:56:48;;;;;;;13.50;5.95;;;8.70;99.90;;;;;;4951339;29;20513;-91
2024/02/09 11:59:15;;;;;;;18.23;8.80;;;8.70;99.90;;;;;;4936869;29;20424;-91
2024/02/09 12:01:44;;;;;;;14.90;6.45;;;9.20;99.90;;;;;;4934915;29;20043;-91
2024/02/09 12:04:11;;;;;;;19.63;6.25;;;9.10;99.90;;;;;;4937270;29;20074;-90
2024/02/09 12:06:38;;;;;;;19.15;7.05;;;9.30;99.90;;;;;;4934704;29;20035;-91
2024/02/09 12:09:07;;;;;;;15.48;6.35;;;9.50;99.90;;;;;;4932179;29;20052;-92
2024/02/09 12:11:33;;;;;;;15.95;5.90;;;10.00;99.90;;;;;;4934673;29;20047;-91
2024/02/09 12:14:00;;;;;;;20.02;5.95;;;10.10;99.90;;;;;;4932104;29;20577;-92
2024/02/09 12:16:27;;;;;;;13.10;5.50;;;9.60;99.90;;;;;;4939097;29;20090;-92
2024/02/09 12:18:55;;;;;;;15.13;5.55;;;9.60;99.90;;;;;;4937333;29;20123;-92
2024/02/09 12:21:22;;;;;;;15.23;5.35;;;10.10;99.90;;;;;;4937747;29;20119;-91
2024/02/09 12:23:53;;;;;;;13.02;4.93;;;9.70;99.90;;;;;;4936902;29;20104;-93
2024/02/09 12:26:20;;;;;;;18.77;5.40;;;9.80;99.90;;;;;;4944230;29;20039;-92
2024/02/09 12:28:47;;;;;;;14.00;6.72;;;9.90;99.90;;;;;;4937217;29;20063;-92
2024/02/09 12:31:19;;;;;;;12.77;5.10;;;9.90;99.90;;;;;;4936708;29;20046;-92
2024/02/09 12:33:47;;;;;;;12.40;5.60;;;10.00;99.90;;;;;;4927133;29;20044;-91
2024/02/09 12:36:15;;;;;;;10.73;4.60;;;10.20;99.90;;;;;;4937444;29;20039;-92
2024/02/09 12:38:42;;;;;;;13.82;4.80;;;10.00;99.90;;;;;;4937245;29;20051;-91
2024/02/09 12:41:09;;;;;;;12.25;5.78;;;10.00;99.90;;;;;;4934145;29;20048;-92
2024/02/09 12:43:39;;;;;;;11.55;5.05;;;9.90;99.90;;;;;;4933746;29;20407;-92
2024/02/09 12:46:06;;;;;;;10.75;4.80;;;9.90;99.90;;;;;;4951489;29;20079;-92
2024/02/09 12:48:36;;;;;;;9.63;4.00;;;10.00;99.90;;;;;;4953220;29;20047;-92
2024/02/09 12:51:06;;;;;;;13.55;5.47;;;9.90;99.90;;;;;;4937061;29;20050;-92
2024/02/09 12:53:36;;;;;;;9.98;5.40;;;10.00;99.90;;;;;;4949189;29;20083;-93
2024/02/09 12:56:03;;;;;;;11.20;5.03;;;10.10;99.90;;;;;;4928774;29;20032;-92
2024/02/09 12:58:30;;;;;;;11.27;5.20;;;10.10;99.90;;;;;;4933767;29;20099;-92
2024/02/09 13:00:56;;;;;;;10.63;4.53;;;10.60;99.90;;;;;;4947554;29;20048;-92
2024/02/09 13:03:23;;;;;;;10.70;4.40;;;10.30;99.90;;;;;;4936493;29;20039;-92
2024/02/09 13:05:50;;;;;;;13.88;4.65;;;10.30;99.90;;;;;;4945250;29;20052;-91
2024/02/09 13:08:17;;;;;;;9.95;4.40;;;10.30;99.90;;;;;;4933817;29;20106;-92
2024/02/09 13:10:43;;;;;;;12.60;4.57;;;10.30;99.90;;;;;;4946100;29;20603;-92
2024/02/09 13:13:11;;;;;;;10.18;4.53;;;10.20;99.90;;;;;;4953155;29;20046;-93
2024/02/09 13:15:38;;;;;;;11.65;5.25;;;10.40;99.90;;;;;;4933176;29;20135;-93
2024/02/09 13:18:08;;;;;;;10.88;4.70;;;10.20;99.90;;;;;;4952358;29;20075;-92
2024/02/09 13:20:37;;;;;;;15.45;5.22;;;10.20;99.90;;;;;;4928801;29;20051;-93
2024/02/09 13:23:04;;;;;;;14.10;5.15;;;10.20;99.90;;;;;;4934393;29;20044;-93
2024/02/09 13:25:33;;;;;;;15.43;5.35;;;10.20;99.90;;;;;;4936715;29;20048;-92
2024/02/09 13:28:00;;;;;;;13.80;5.75;;;10.20;99.90;;;;;;4936169;29;20613;-91
2024/02/09 13:30:28;;;;;;;12.02;6.07;;;10.20;99.90;;;;;;4940210;29;20075;-92
2024/02/09 13:32:56;;;;;;;11.63;5.57;;;10.10;99.90;;;;;;4939921;29;20054;-94
2024/02/09 13:35:24;;;;;;;9.93;5.32;;;11.00;99.90;;;;;;4940673;29;20047;-93
2024/02/09 13:37:50;;;;;;;9.95;4.55;;;10.20;99.90;;;;;;4939593;29;20560;-93
2024/02/09 13:40:18;;;;;;;11.07;4.97;;;10.60;99.90;;;;;;4940375;29;20070;-92
2024/02/09 13:42:52;;;;;;;10.52;4.57;;;10.10;99.90;;;;;;4940370;29;20043;-93
2024/02/09 13:45:26;;;;;;;11.98;4.18;;;10.20;99.90;;;;;;4942573;29;20370;-95
2024/02/09 13:47:53;;;;;;;9.60;4.45;;;10.10;99.90;;;;;;4935190;29;20050;-90
2024/02/09 13:50:23;;;;;;;11.63;4.22;;;10.20;99.90;;;;;;4939241;29;20036;-94
2024/02/09 13:52:52;;;;;;;8.63;3.55;;;10.50;99.90;;;;;;4940465;29;20071;-91
2024/02/09 13:55:22;;;;;;;7.93;3.25;;;11.00;99.90;;;;;;4939860;29;20663;-92
2024/02/09 13:57:54;;;;;;;9.25;3.72;;;10.30;99.90;;;;;;4932205;29;20501;-93
2024/02/09 14:00:22;;;;;;;13.07;4.30;;;10.30;99.90;;;;;;4938530;29;20032;-92
2024/02/09 14:02:48;;;;;;;10.50;4.40;;;10.30;99.90;;;;;;4942069;29;20059;-91
2024/02/09 14:05:16;;;;;;;8.60;4.50;;;11.20;99.90;;;;;;4937230;29;20040;-91
2024/02/09 14:07:43;;;;;;;8.60;4.32;;;10.30;99.90;;;;;;4936728;29;20039;-91
2024/02/09 14:10:12;;;;;;;10.07;4.38;;;10.40;99.90;;;;;;4940756;29;20048;-92
2024/02/09 14:12:39;;;;;;;9.85;3.70;;;10.30;99.90;;;;;;4938335;29;20051;-92
2024/02/09 14:15:08;;;;;;;10.48;5.40;;;10.40;99.90;;;;;;4927284;29;20397;-92
2024/02/09 14:17:35;;;;;;;14.40;5.72;;;10.40;99.90;;;;;;4939505;29;20390;-91
2024/02/09 14:20:02;;;;;;;16.42;7.88;;;10.40;99.90;;;;;;4952416;29;20035;-90
2024/02/09 14:22:30;;;;;;;25.60;12.00;;;10.40;99.90;;;;;;4938923;29;20055;-90
2024/02/09 14:24:57;;;;;;;32.65;11.52;;;10.40;99.90;;;;;;4938791;29;20039;-90
2024/02/09 14:27:25;;;;;;;13.80;8.10;;;10.40;99.90;;;;;;4939237;29;20071;-90
2024/02/09 14:29:52;;;;;;;11.93;6.55;;;10.50;99.90;;;;;;4954968;29;20060;-91
2024/02/09 14:32:20;;;;;;;8.75;4.53;;;10.40;99.90;;;;;;4939294;29;20047;-92
2024/02/09 14:34:47;;;;;;;9.02;5.10;;;10.40;99.90;;;;;;4938878;29;20124;-91
2024/02/09 14:37:13;;;;;;;7.35;4.13;;;10.40;99.90;;;;;;4938852;29;20115;-90
2024/02/09 14:39:44;;;;;;;7.45;3.70;;;10.50;99.90;;;;;;4936903;29;20186;-91
2024/02/09 14:42:11;;;;;;;9.77;3.58;;;10.40;99.90;;;;;;4939064;29;20036;-90
2024/02/09 14:44:46;;;;;;;6.82;3.38;;;10.40;99.90;;;;;;4936610;29;20114;-90
2024/02/09 14:47:12;;;;;;;6.00;3.03;;;10.30;99.90;;;;;;4941787;29;20047;-91
2024/02/09 14:49:39;;;;;;;7.15;3.47;;;10.30;99.90;;;;;;4954715;29;20405;-91
2024/02/09 14:52:08;;;;;;;7.25;3.60;;;10.30;99.90;;;;;;4938846;29;20083;-90
2024/02/09 14:54:38;;;;;;;10.50;3.83;;;10.30;99.90;;;;;;4938572;29;20067;-90
2024/02/09 14:57:05;;;;;;;6.35;3.33;;;10.30;99.90;;;;;;4938767;29;20079;-91
2024/02/09 14:59:32;;;;;;;8.07;3.70;;;10.20;99.90;;;;;;4937089;29;20098;-91
2024/02/09 15:01:59;;;;;;;8.00;3.58;;;10.50;99.90;;;;;;4948804;29;20133;-91
2024/02/09 15:04:26;;;;;;;6.32;2.78;;;10.70;99.90;;;;;;4938467;29;20046;-90
2024/02/09 15:06:53;;;;;;;6.32;3.13;;;10.30;99.90;;;;;;4935424;29;20068;-91
2024/02/09 15:09:20;;;;;;;8.07;3.13;;;10.20;99.90;;;;;;4933075;29;20044;-91
2024/02/09 15:11:47;;;;;;;5.15;3.20;;;10.40;99.90;;;;;;4937745;29;20067;-91
2024/02/09 15:14:14;;;;;;;8.27;3.13;;;10.70;99.90;;;;;;4938378;29;20063;-91
2024/02/09 15:16:43;;;;;;;6.05;2.63;;;10.40;99.90;;;;;;4943023;29;20063;-90
2024/02/09 15:19:11;;;;;;;6.88;3.08;;;10.20;99.90;;;;;;4937584;29;20046;-90
2024/02/09 15:21:43;;;;;;;9.85;4.40;;;10.20;99.90;;;;;;4940873;29;20504;-90
2024/02/09 15:24:10;;;;;;;10.38;4.38;;;10.20;99.90;;;;;;4935107;29;20067;-91